Time,TemperatureF,DewpointF,PressureIn,WindDirection,WindDirectionDegrees,WindSpeedMPH,WindSpeedGustMPH,Humidity,HourlyPrecipIn,Conditions,Clouds,dailyrainin,SoftwareType,DateUTC
2013-03-09 06:28:00,43.9,38.8,30.01,NNW,344,0.0,3.0,82,0.00,,,0.00,Wunderground v.1.15,2013-03-09 13:28:00,
2013-03-09 06:30:00,43.9,38.8,30.01,NNW,344,0.0,3.0,82,0.00,,,0.00,Wunderground v.1.15,2013-03-09 13:30:00,
2013-03-09 06:32:00,43.9,38.8,30.01,NNW,344,0.0,3.0,82,0.00,,,0.00,Wunderground v.1.15,2013-03-09 13:32:00,
2013-03-09 06:38:00,43.9,38.4,30.01,NNW,329,0.0,3.0,81,0.00,,,0.00,Wunderground v.1.15,2013-03-09 13:38:00,
2013-03-09 06:44:00,44.0,38.2,30.01,NNW,331,1.0,3.0,80,0.00,,,0.00,Wunderground v.1.15,2013-03-09 13:44:00,
2013-03-09 06:50:00,44.0,38.2,30.01,NNW,346,1.0,3.0,80,0.00,,,0.00,Wunderground v.1.15,2013-03-09 13:50:00,
2013-03-09 06:56:00,44.0,38.2,30.01,NNW,335,1.0,3.0,80,0.00,,,0.00,Wunderground v.1.15,2013-03-09 13:56:00,
2013-03-09 07:00:00,44.0,37.9,30.02,NNW,335,1.0,3.0,79,0.00,,,0.00,Wunderground v.1.15,2013-03-09 14:00:00,
2013-03-09 07:06:00,44.0,37.9,30.02,NNW,335,0.0,3.0,79,0.00,,,0.00,Wunderground v.1.15,2013-03-09 14:06:00,
2013-03-09 07:12:00,44.0,38.2,30.02,NNW,335,0.0,3.0,80,0.00,,,0.00,Wunderground v.1.15,2013-03-09 14:12:00,
2013-03-09 07:18:00,44.1,37.7,30.02,NNW,335,0.0,3.0,78,0.00,,,0.00,Wunderground v.1.15,2013-03-09 14:18:00,
2013-03-09 07:24:00,44.2,37.8,30.03,NNW,335,0.0,3.0,78,0.00,,,0.00,Wunderground v.1.15,2013-03-09 14:24:00,
2013-03-09 07:30:00,44.4,38.0,30.03,NNW,335,0.0,3.0,78,0.00,,,0.00,Wunderground v.1.15,2013-03-09 14:30:00,
2013-03-09 07:36:00,44.5,37.7,30.03,NNW,340,0.0,3.0,77,0.00,,,0.00,Wunderground v.1.15,2013-03-09 14:36:00,
2013-03-09 07:42:00,44.7,37.6,30.03,NNW,340,0.0,3.0,76,0.00,,,0.00,Wunderground v.1.15,2013-03-09 14:42:00,
2013-03-09 07:48:00,44.9,38.1,30.04,NNW,340,0.0,3.0,77,0.00,,,0.00,Wunderground v.1.15,2013-03-09 14:48:00,
2013-03-09 07:54:00,45.2,37.4,30.04,NNW,340,0.0,3.0,74,0.00,,,0.00,Wunderground v.1.15,2013-03-09 14:54:00,
2013-03-09 08:00:00,45.4,37.2,30.04,NNW,340,0.0,3.0,73,0.00,,,0.00,Wunderground v.1.15,2013-03-09 15:00:00,
2013-03-09 08:06:00,45.6,37.4,30.04,NNW,340,0.0,3.0,73,0.00,,,0.00,Wunderground v.1.15,2013-03-09 15:06:00,
2013-03-09 08:12:00,45.8,37.6,30.04,NNW,340,0.0,3.0,73,0.00,,,0.00,Wunderground v.1.15,2013-03-09 15:12:00,
2013-03-09 08:18:00,46.1,37.6,30.05,NNW,340,0.0,3.0,72,0.00,,,0.00,Wunderground v.1.15,2013-03-09 15:18:00,
2013-03-09 08:24:00,46.7,37.8,30.04,NNW,340,0.0,3.0,71,0.00,,,0.00,Wunderground v.1.15,2013-03-09 15:24:00,
2013-03-09 08:30:00,46.9,37.6,30.05,WNW,300,1.0,3.0,70,0.00,,,0.00,Wunderground v.1.15,2013-03-09 15:30:00,
2013-03-09 08:36:00,46.9,37.6,30.05,NW,315,2.0,3.0,70,0.00,,,0.00,Wunderground v.1.15,2013-03-09 15:36:00,
2013-03-09 08:42:00,46.9,37.6,30.05,WNW,283,2.0,3.0,70,0.00,,,0.00,Wunderground v.1.15,2013-03-09 15:42:00,
2013-03-09 08:48:00,47.2,38.3,30.05,WNW,297,1.0,3.0,71,0.00,,,0.00,Wunderground v.1.15,2013-03-09 15:48:00,
2013-03-09 08:54:00,48.1,37.7,30.05,NW,304,2.0,4.0,67,0.00,,,0.00,Wunderground v.1.15,2013-03-09 15:54:00,
2013-03-09 09:00:00,48.8,37.2,30.06,West,272,3.0,4.0,64,0.00,,,0.00,Wunderground v.1.15,2013-03-09 16:00:00,
2013-03-09 09:06:00,48.8,37.2,30.06,SW,235,3.0,4.0,64,0.00,,,0.00,Wunderground v.1.15,2013-03-09 16:06:00,
2013-03-09 09:12:00,48.8,37.2,30.06,WNW,296,3.0,3.0,64,0.00,,,0.00,Wunderground v.1.15,2013-03-09 16:12:00,
2013-03-09 09:18:00,49.1,37.0,30.06,SW,232,3.0,5.0,63,0.00,,,0.00,Wunderground v.1.15,2013-03-09 16:18:00,
2013-03-09 09:24:00,48.9,36.9,30.06,WSW,252,5.0,8.0,63,0.00,,,0.00,Wunderground v.1.15,2013-03-09 16:24:00,
2013-03-09 09:30:00,48.8,36.4,30.07,SW,233,4.0,5.0,62,0.00,,,0.00,Wunderground v.1.15,2013-03-09 16:30:00,
2013-03-09 09:36:00,48.9,37.3,30.07,WNW,286,3.0,6.0,64,0.00,,,0.00,Wunderground v.1.15,2013-03-09 16:36:00,
2013-03-09 09:42:00,49.1,37.4,30.07,WNW,296,3.0,6.0,64,0.00,,,0.00,Wunderground v.1.15,2013-03-09 16:42:00,
2013-03-09 09:48:00,49.0,36.9,30.06,NW,325,4.0,6.0,63,0.00,,,0.00,Wunderground v.1.15,2013-03-09 16:48:00,
2013-03-09 09:54:00,49.0,37.7,30.06,NW,323,4.0,4.0,65,0.00,,,0.00,Wunderground v.1.15,2013-03-09 16:54:00,
2013-03-09 10:00:00,49.1,37.0,30.07,NW,311,4.0,4.0,63,0.00,,,0.00,Wunderground v.1.15,2013-03-09 17:00:00,
2013-03-09 10:06:00,49.4,36.9,30.07,West,264,3.0,5.0,62,0.00,,,0.00,Wunderground v.1.15,2013-03-09 17:06:00,
2013-03-09 10:12:00,49.6,35.8,30.07,West,269,3.0,10.0,59,0.00,,,0.00,Wunderground v.1.15,2013-03-09 17:12:00,
2013-03-09 10:18:00,49.5,35.3,30.07,WSW,256,6.0,10.0,58,0.00,,,0.00,Wunderground v.1.15,2013-03-09 17:18:00,
2013-03-09 10:24:00,49.4,36.9,30.07,WNW,290,6.0,7.0,62,0.00,,,0.00,Wunderground v.1.15,2013-03-09 17:24:00,
2013-03-09 10:30:00,49.5,36.6,30.07,WNW,296,5.0,5.0,61,0.00,,,0.00,Wunderground v.1.15,2013-03-09 17:30:00,
2013-03-09 10:36:00,49.9,35.7,30.07,WNW,282,3.0,6.0,58,0.00,,,0.00,Wunderground v.1.15,2013-03-09 17:36:00,
2013-03-09 10:42:00,50.0,35.4,30.07,NW,312,4.0,5.0,57,0.00,,,0.00,Wunderground v.1.15,2013-03-09 17:42:00,
2013-03-09 10:48:00,50.2,35.1,30.07,West,260,4.0,5.0,56,0.00,,,0.00,Wunderground v.1.15,2013-03-09 17:48:00,
2013-03-09 10:54:00,50.4,35.3,30.07,West,259,4.0,9.0,56,0.00,,,0.00,Wunderground v.1.15,2013-03-09 17:54:00,
2013-03-09 11:00:00,49.5,36.2,30.08,West,265,8.0,8.0,60,0.00,,,0.00,Wunderground v.1.15,2013-03-09 18:00:00,
2013-03-09 11:06:00,47.8,37.7,30.08,WNW,302,7.0,8.0,68,0.00,,,0.01,Wunderground v.1.15,2013-03-09 18:06:00,
2013-03-09 11:12:00,48.1,38.4,30.07,West,278,2.0,6.0,69,0.00,,,0.01,Wunderground v.1.15,2013-03-09 18:12:00,
2013-03-09 11:18:00,49.2,37.9,30.07,North,355,3.0,6.0,65,0.00,,,0.01,Wunderground v.1.15,2013-03-09 18:18:00,
2013-03-09 11:24:00,49.8,36.5,30.07,West,278,5.0,7.0,60,0.00,,,0.01,Wunderground v.1.15,2013-03-09 18:24:00,
2013-03-09 11:30:00,50.3,36.9,30.07,WNW,298,5.0,5.0,60,0.00,,,0.01,Wunderground v.1.15,2013-03-09 18:30:00,
2013-03-09 11:36:00,50.4,36.6,30.07,WNW,294,6.0,9.0,59,0.00,,,0.01,Wunderground v.1.15,2013-03-09 18:36:00,
2013-03-09 11:42:00,50.1,38.0,30.08,WNW,299,6.0,6.0,63,0.00,,,0.01,Wunderground v.1.15,2013-03-09 18:42:00,
2013-03-09 11:48:00,48.7,39.0,30.08,West,271,6.0,10.0,69,0.00,,,0.01,Wunderground v.1.15,2013-03-09 18:48:00,
2013-03-09 11:54:00,49.1,38.2,30.08,West,280,6.0,8.0,66,0.00,,,0.02,Wunderground v.1.15,2013-03-09 18:54:00,
2013-03-09 12:00:00,49.5,37.8,30.08,West,280,8.0,10.0,64,0.00,,,0.02,Wunderground v.1.15,2013-03-09 19:00:00,
2013-03-09 12:06:00,49.7,36.4,30.07,WNW,300,8.0,10.0,60,0.00,,,0.02,Wunderground v.1.15,2013-03-09 19:06:00,
2013-03-09 12:12:00,50.3,36.5,30.07,WNW,300,7.0,8.0,59,0.00,,,0.02,Wunderground v.1.15,2013-03-09 19:12:00,
2013-03-09 12:18:00,50.4,37.0,30.07,NW,325,7.0,9.0,60,0.00,,,0.02,Wunderground v.1.15,2013-03-09 19:18:00,
2013-03-09 12:24:00,50.5,36.7,30.07,WNW,292,6.0,7.0,59,0.00,,,0.02,Wunderground v.1.15,2013-03-09 19:24:00,
2013-03-09 12:30:00,50.3,36.1,30.07,WNW,287,6.0,6.0,58,0.00,,,0.02,Wunderground v.1.15,2013-03-09 19:30:00,
2013-03-09 12:36:00,50.0,36.7,30.07,West,281,7.0,9.0,60,0.00,,,0.02,Wunderground v.1.15,2013-03-09 19:36:00,
2013-03-09 12:42:00,49.8,36.9,30.07,NNW,327,6.0,7.0,61,0.00,,,0.02,Wunderground v.1.15,2013-03-09 19:42:00,
2013-03-09 12:48:00,50.2,38.1,30.07,NNW,344,5.0,7.0,63,0.00,,,0.02,Wunderground v.1.15,2013-03-09 19:48:00,
2013-03-09 12:54:00,50.0,38.3,30.07,North,350,4.0,6.0,64,0.00,,,0.02,Wunderground v.1.15,2013-03-09 19:54:00,
2013-03-09 13:00:00,50.2,38.1,30.07,NNE,22,4.0,7.0,63,0.00,,,0.02,Wunderground v.1.15,2013-03-09 20:00:00,
2013-03-09 13:06:00,49.9,37.4,30.07,NNW,329,6.0,7.0,62,0.00,,,0.02,Wunderground v.1.15,2013-03-09 20:06:00,
2013-03-09 13:12:00,49.8,37.7,30.07,NNW,344,5.0,5.0,63,0.00,,,0.02,Wunderground v.1.15,2013-03-09 20:12:00,
2013-03-09 13:18:00,49.6,38.3,30.07,NW,309,4.0,5.0,65,0.00,,,0.02,Wunderground v.1.15,2013-03-09 20:18:00,
2013-03-09 13:24:00,49.0,38.5,30.07,West,271,6.0,7.0,67,0.00,,,0.02,Wunderground v.1.15,2013-03-09 20:24:00,
2013-03-09 13:30:00,48.6,38.9,30.07,West,281,6.0,6.0,69,0.00,,,0.02,Wunderground v.1.15,2013-03-09 20:30:00,
2013-03-09 13:36:00,48.5,39.2,30.06,WNW,302,5.0,6.0,70,0.00,,,0.02,Wunderground v.1.15,2013-03-09 20:36:00,
2013-03-09 13:42:00,49.3,38.8,30.06,NW,305,5.0,7.0,67,0.00,,,0.02,Wunderground v.1.15,2013-03-09 20:42:00,
2013-03-09 13:48:00,50.4,39.1,30.06,NNW,348,6.0,7.0,65,0.00,,,0.02,Wunderground v.1.15,2013-03-09 20:48:00,
2013-03-09 13:54:00,50.6,38.1,30.06,NNW,328,6.0,7.0,62,0.00,,,0.02,Wunderground v.1.15,2013-03-09 20:54:00,
2013-03-09 14:00:00,50.8,37.0,30.06,North,355,6.0,6.0,59,0.00,,,0.02,Wunderground v.1.15,2013-03-09 21:00:00,
2013-03-09 14:06:00,50.8,37.4,30.05,NNW,342,5.0,6.0,60,0.00,,,0.02,Wunderground v.1.15,2013-03-09 21:06:00,
2013-03-09 14:12:00,51.7,37.4,30.05,WNW,284,5.0,9.0,58,0.00,,,0.02,Wunderground v.1.15,2013-03-09 21:12:00,
2013-03-09 14:18:00,52.2,37.4,30.05,WNW,288,5.0,9.0,57,0.00,,,0.02,Wunderground v.1.15,2013-03-09 21:18:00,
2013-03-09 14:24:00,52.3,37.5,30.05,NW,321,4.0,6.0,57,0.00,,,0.02,Wunderground v.1.15,2013-03-09 21:24:00,
2013-03-09 14:32:00,52.3,37.5,30.05,WNW,301,5.0,7.0,57,0.00,,,0.02,Wunderground v.1.15,2013-03-09 21:32:00,